Terminal Aerodrome Forecast
Issued by NWS

Home | Current Version | Previous Version | Text Only | Print | Product List | Glossary On
Versions: 1 2 3 4 5 6 7 8 9 10 11 12 13 14 15 16 17 18 19
000
FTUS42 KTAE 260500
TAFVLD
TAF
KVLD 260520Z 2606/2706 20003KT P6SM SKC
     FM260900 00000KT 5SM BR BKN015
     FM261300 26009KT P6SM SCT040
     FM261900 23009KT P6SM VCTS SCT050CB
     FM270000 00000KT P6SM SKC=

USA.gov is the U.S. government's official web portal to all federal, state and local government web resources and services.